sensor_id;sensor_type;location;lat;lon;timestamp;pressure;altitude;pressure_sealevel;temperature;humidity
40372;BME280;28564;53.346;-6.554;2023-01-29T00:00:41;102270.03;;;8.18;54.41
40372;BME280;28564;53.346;-6.554;2023-01-29T00:03:09;102268.34;;;8.48;54.32
40372;BME280;28564;53.346;-6.554;2023-01-29T00:05:36;102268.73;;;8.30;54.34
40372;BME280;28564;53.346;-6.554;2023-01-29T00:08:03;102270.80;;;8.57;54.13
40372;BME280;28564;53.346;-6.554;2023-01-29T00:10:31;102272.17;;;8.41;53.91
40372;BME280;28564;53.346;-6.554;2023-01-29T00:12:58;102272.57;;;8.63;53.86
40372;BME280;28564;53.346;-6.554;2023-01-29T00:15:26;102275.48;;;8.85;53.48
40372;BME280;28564;53.346;-6.554;2023-01-29T00:17:53;102273.00;;;8.59;53.57
40372;BME280;28564;53.346;-6.554;2023-01-29T00:20:20;102268.71;;;8.34;53.61
40372;BME280;28564;53.346;-6.554;2023-01-29T00:22:47;102270.73;;;8.28;53.72
40372;BME280;28564;53.346;-6.554;2023-01-29T00:25:15;102268.87;;;8.67;54.18
40372;BME280;28564;53.346;-6.554;2023-01-29T00:27:42;102272.89;;;8.20;54.25
40372;BME280;28564;53.346;-6.554;2023-01-29T00:30:10;102271.24;;;8.41;54.30
40372;BME280;28564;53.346;-6.554;2023-01-29T00:32:38;102277.40;;;8.62;54.38
40372;BME280;28564;53.346;-6.554;2023-01-29T00:35:06;102278.85;;;8.65;54.27
40372;BME280;28564;53.346;-6.554;2023-01-29T00:37:35;102280.22;;;8.41;54.30
40372;BME280;28564;53.346;-6.554;2023-01-29T00:40:03;102282.48;;;8.15;54.41
40372;BME280;28564;53.346;-6.554;2023-01-29T00:42:31;102283.16;;;8.40;54.35
40372;BME280;28564;53.346;-6.554;2023-01-29T00:44:58;102287.63;;;8.42;54.20
40372;BME280;28564;53.346;-6.554;2023-01-29T00:47:26;102281.77;;;8.35;54.40
40372;BME280;28564;53.346;-6.554;2023-01-29T00:49:53;102278.02;;;8.58;54.32
40372;BME280;28564;53.346;-6.554;2023-01-29T00:52:21;102269.94;;;8.28;54.47
40372;BME280;28564;53.346;-6.554;2023-01-29T00:54:49;102268.00;;;8.47;54.57
40372;BME280;28564;53.346;-6.554;2023-01-29T00:57:16;102261.75;;;8.20;54.53
40372;BME280;28564;53.346;-6.554;2023-01-29T00:59:43;102252.22;;;8.15;54.93
40372;BME280;28564;53.346;-6.554;2023-01-29T01:02:11;102248.52;;;8.20;55.10
40372;BME280;28564;53.346;-6.554;2023-01-29T01:04:38;102249.32;;;8.29;54.95
40372;BME280;28564;53.346;-6.554;2023-01-29T01:07:06;102251.78;;;8.38;54.43
40372;BME280;28564;53.346;-6.554;2023-01-29T01:09:34;102255.31;;;8.35;54.31
40372;BME280;28564;53.346;-6.554;2023-01-29T01:12:01;102257.07;;;8.36;54.12
40372;BME280;28564;53.346;-6.554;2023-01-29T01:14:28;102244.35;;;8.09;54.32
40372;BME280;28564;53.346;-6.554;2023-01-29T01:16:55;102246.37;;;8.60;54.44
40372;BME280;28564;53.346;-6.554;2023-01-29T01:19:23;102240.91;;;8.18;54.18
40372;BME280;28564;53.346;-6.554;2023-01-29T01:21:50;102240.62;;;8.63;54.16
40372;BME280;28564;53.346;-6.554;2023-01-29T01:24:17;102239.59;;;8.17;54.23
40372;BME280;28564;53.346;-6.554;2023-01-29T01:26:44;102235.79;;;8.62;54.33
40372;BME280;28564;53.346;-6.554;2023-01-29T01:29:12;102234.47;;;8.39;54.11
40372;BME280;28564;53.346;-6.554;2023-01-29T01:31:39;102228.90;;;8.63;54.00
40372;BME280;28564;53.346;-6.554;2023-01-29T01:34:06;102231.34;;;8.39;53.82
40372;BME280;28564;53.346;-6.554;2023-01-29T01:36:33;102223.71;;;8.38;53.68
40372;BME280;28564;53.346;-6.554;2023-01-29T01:39:01;102230.32;;;8.37;53.46
40372;BME280;28564;53.346;-6.554;2023-01-29T01:41:29;102221.83;;;8.06;53.74
40372;BME280;28564;53.346;-6.554;2023-01-29T01:43:58;102224.50;;;8.24;53.93
40372;BME280;28564;53.346;-6.554;2023-01-29T01:46:27;102227.90;;;8.17;54.41
40372;BME280;28564;53.346;-6.554;2023-01-29T01:48:57;102229.97;;;8.17;54.28
40372;BME280;28564;53.346;-6.554;2023-01-29T01:51:30;102229.24;;;8.15;54.46
40372;BME280;28564;53.346;-6.554;2023-01-29T01:54:02;102228.93;;;8.38;54.36
40372;BME280;28564;53.346;-6.554;2023-01-29T01:56:33;102230.04;;;7.89;54.50
40372;BME280;28564;53.346;-6.554;2023-01-29T01:59:03;102227.82;;;8.31;54.69
40372;BME280;28564;53.346;-6.554;2023-01-29T02:01:31;102221.95;;;8.29;54.80
40372;BME280;28564;53.346;-6.554;2023-01-29T02:04:01;102223.45;;;8.12;54.78
40372;BME280;28564;53.346;-6.554;2023-01-29T02:06:31;102224.57;;;8.41;54.63
40372;BME280;28564;53.346;-6.554;2023-01-29T02:09:07;102222.38;;;7.97;54.54
40372;BME280;28564;53.346;-6.554;2023-01-29T02:11:37;102227.50;;;8.42;54.53
40372;BME280;28564;53.346;-6.554;2023-01-29T02:14:04;102220.90;;;8.40;54.39
40372;BME280;28564;53.346;-6.554;2023-01-29T02:16:33;102219.03;;;8.35;54.63
40372;BME280;28564;53.346;-6.554;2023-01-29T02:19:01;102217.92;;;8.34;54.57
40372;BME280;28564;53.346;-6.554;2023-01-29T02:21:48;102214.67;;;8.12;54.67
40372;BME280;28564;53.346;-6.554;2023-01-29T02:24:53;102208.10;;;8.10;54.61
40372;BME280;28564;53.346;-6.554;2023-01-29T02:27:30;102209.80;;;7.91;54.78
40372;BME280;28564;53.346;-6.554;2023-01-29T02:30:04;102205.91;;;7.93;54.53
40372;BME280;28564;53.346;-6.554;2023-01-29T02:32:38;102200.46;;;8.09;54.66
40372;BME280;28564;53.346;-6.554;2023-01-29T02:35:14;102199.81;;;8.29;54.80
40372;BME280;28564;53.346;-6.554;2023-01-29T02:37:50;102191.50;;;7.97;55.23
40372;BME280;28564;53.346;-6.554;2023-01-29T02:40:28;102188.01;;;7.96;55.18
40372;BME280;28564;53.346;-6.554;2023-01-29T02:43:05;102187.64;;;8.18;55.03
40372;BME280;28564;53.346;-6.554;2023-01-29T02:45:41;102179.90;;;7.90;55.02
40372;BME280;28564;53.346;-6.554;2023-01-29T02:48:12;102172.79;;;7.82;55.31
40372;BME280;28564;53.346;-6.554;2023-01-29T02:50:46;102164.13;;;8.05;55.21
40372;BME280;28564;53.346;-6.554;2023-01-29T02:53:15;102163.43;;;7.99;55.32
40372;BME280;28564;53.346;-6.554;2023-01-29T02:55:49;102160.67;;;7.95;55.37
40372;BME280;28564;53.346;-6.554;2023-01-29T02:58:24;102151.33;;;7.96;55.29
40372;BME280;28564;53.346;-6.554;2023-01-29T03:00:59;102151.02;;;7.93;55.53
40372;BME280;28564;53.346;-6.554;2023-01-29T03:03:31;102144.48;;;7.96;55.37
40372;BME280;28564;53.346;-6.554;2023-01-29T03:06:03;102141.03;;;7.95;55.21
40372;BME280;28564;53.346;-6.554;2023-01-29T03:08:36;102141.00;;;7.94;55.18
40372;BME280;28564;53.346;-6.554;2023-01-29T03:11:07;102139.28;;;7.92;55.35
40372;BME280;28564;53.346;-6.554;2023-01-29T03:13:41;102139.31;;;7.73;55.24
40372;BME280;28564;53.346;-6.554;2023-01-29T03:16:15;102140.84;;;7.77;55.03
40372;BME280;28564;53.346;-6.554;2023-01-29T03:18:47;102141.05;;;8.00;54.81
40372;BME280;28564;53.346;-6.554;2023-01-29T03:21:19;102140.07;;;7.98;54.57
40372;BME280;28564;53.346;-6.554;2023-01-29T03:23:47;102137.83;;;7.96;54.65
40372;BME280;28564;53.346;-6.554;2023-01-29T03:26:16;102136.79;;;7.95;54.98
40372;BME280;28564;53.346;-6.554;2023-01-29T03:28:46;102128.93;;;7.78;54.66
40372;BME280;28564;53.346;-6.554;2023-01-29T03:31:14;102125.42;;;8.00;54.51
40372;BME280;28564;53.346;-6.554;2023-01-29T03:33:47;102128.53;;;8.03;54.47
40372;BME280;28564;53.346;-6.554;2023-01-29T03:36:18;102127.64;;;7.83;54.19
40372;BME280;28564;53.346;-6.554;2023-01-29T03:38:47;102127.86;;;7.78;54.09
40372;BME280;28564;53.346;-6.554;2023-01-29T03:41:22;102119.62;;;8.00;53.93
40372;BME280;28564;53.346;-6.554;2023-01-29T03:43:55;102111.21;;;7.97;53.89
40372;BME280;28564;53.346;-6.554;2023-01-29T03:46:30;102104.00;;;7.98;54.09
40372;BME280;28564;53.346;-6.554;2023-01-29T03:49:00;102101.70;;;7.74;53.87
40372;BME280;28564;53.346;-6.554;2023-01-29T03:51:35;102095.55;;;7.95;53.71
40372;BME280;28564;53.346;-6.554;2023-01-29T03:54:09;102092.77;;;7.90;53.76
40372;BME280;28564;53.346;-6.554;2023-01-29T03:56:55;102093.47;;;7.86;53.57
40372;BME280;28564;53.346;-6.554;2023-01-29T03:59:32;102089.67;;;7.77;53.38
40372;BME280;28564;53.346;-6.554;2023-01-29T04:02:05;102082.71;;;7.67;53.31
40372;BME280;28564;53.346;-6.554;2023-01-29T04:04:36;102073.26;;;7.57;53.23
40372;BME280;28564;53.346;-6.554;2023-01-29T04:07:13;102072.88;;;7.45;53.24
40372;BME280;28564;53.346;-6.554;2023-01-29T04:09:46;102074.44;;;7.13;53.27
40372;BME280;28564;53.346;-6.554;2023-01-29T04:12:20;102067.07;;;7.31;53.32
40372;BME280;28564;53.346;-6.554;2023-01-29T04:14:51;102065.22;;;7.31;53.28
40372;BME280;28564;53.346;-6.554;2023-01-29T04:17:24;102062.09;;;7.27;53.20
40372;BME280;28564;53.346;-6.554;2023-01-29T04:19:54;102061.51;;;7.19;53.30
40372;BME280;28564;53.346;-6.554;2023-01-29T04:22:23;102056.20;;;7.10;53.34
40372;BME280;28564;53.346;-6.554;2023-01-29T04:24:52;102058.47;;;7.30;53.33
40372;BME280;28564;53.346;-6.554;2023-01-29T04:27:26;102055.40;;;7.22;53.48
40372;BME280;28564;53.346;-6.554;2023-01-29T04:30:06;102051.71;;;6.94;53.62
40372;BME280;28564;53.346;-6.554;2023-01-29T04:32:49;102045.59;;;6.94;53.80
40372;BME280;28564;53.346;-6.554;2023-01-29T04:35:27;102046.75;;;6.92;53.54
40372;BME280;28564;53.346;-6.554;2023-01-29T04:38:07;102045.06;;;7.14;53.46
40372;BME280;28564;53.346;-6.554;2023-01-29T04:40:46;102041.47;;;7.08;53.50
40372;BME280;28564;53.346;-6.554;2023-01-29T04:43:23;102045.14;;;6.79;53.38
40372;BME280;28564;53.346;-6.554;2023-01-29T04:46:04;102042.53;;;7.03;53.37
40372;BME280;28564;53.346;-6.554;2023-01-29T04:48:44;102037.09;;;7.17;53.53
40372;BME280;28564;53.346;-6.554;2023-01-29T04:51:20;102033.32;;;7.11;53.60
40372;BME280;28564;53.346;-6.554;2023-01-29T04:53:54;102034.92;;;6.84;53.76
40372;BME280;28564;53.346;-6.554;2023-01-29T04:56:28;102038.79;;;6.81;53.87
40372;BME280;28564;53.346;-6.554;2023-01-29T04:59:03;102037.07;;;6.80;53.86
40372;BME280;28564;53.346;-6.554;2023-01-29T05:01:33;102037.15;;;7.01;54.17
40372;BME280;28564;53.346;-6.554;2023-01-29T05:04:05;102035.68;;;7.08;54.19
40372;BME280;28564;53.346;-6.554;2023-01-29T05:06:35;102039.54;;;6.95;54.37
40372;BME280;28564;53.346;-6.554;2023-01-29T05:09:04;102041.03;;;7.03;54.23
40372;BME280;28564;53.346;-6.554;2023-01-29T05:11:31;102041.15;;;7.30;54.13
40372;BME280;28564;53.346;-6.554;2023-01-29T05:14:02;102036.56;;;7.13;54.08
40372;BME280;28564;53.346;-6.554;2023-01-29T05:16:34;102035.42;;;6.95;54.01
40372;BME280;28564;53.346;-6.554;2023-01-29T05:19:04;102034.88;;;6.99;54.04
40372;BME280;28564;53.346;-6.554;2023-01-29T05:21:31;102033.15;;;7.58;54.04
40372;BME280;28564;53.346;-6.554;2023-01-29T05:24:09;102028.59;;;7.14;53.87
40372;BME280;28564;53.346;-6.554;2023-01-29T05:26:36;102020.81;;;7.17;53.86
40372;BME280;28564;53.346;-6.554;2023-01-29T05:29:03;102019.04;;;7.21;53.85
40372;BME280;28564;53.346;-6.554;2023-01-29T05:31:30;102016.61;;;7.26;53.99
40372;BME280;28564;53.346;-6.554;2023-01-29T05:33:57;102013.88;;;7.35;53.90
40372;BME280;28564;53.346;-6.554;2023-01-29T05:36:25;102007.76;;;7.41;53.74
40372;BME280;28564;53.346;-6.554;2023-01-29T05:38:52;102004.31;;;7.46;53.78
40372;BME280;28564;53.346;-6.554;2023-01-29T05:41:19;101999.18;;;7.51;53.84
40372;BME280;28564;53.346;-6.554;2023-01-29T05:43:47;101998.30;;;7.59;53.50
40372;BME280;28564;53.346;-6.554;2023-01-29T05:46:14;101993.90;;;7.61;53.71
40372;BME280;28564;53.346;-6.554;2023-01-29T05:48:41;101994.54;;;7.63;53.84
40372;BME280;28564;53.346;-6.554;2023-01-29T05:51:09;101997.93;;;7.67;53.74
40372;BME280;28564;53.346;-6.554;2023-01-29T05:53:36;101990.75;;;7.69;53.61
40372;BME280;28564;53.346;-6.554;2023-01-29T05:56:04;101989.60;;;7.71;53.64
40372;BME280;28564;53.346;-6.554;2023-01-29T05:58:32;101985.55;;;7.72;53.67
40372;BME280;28564;53.346;-6.554;2023-01-29T06:01:09;101987.15;;;7.77;53.68
40372;BME280;28564;53.346;-6.554;2023-01-29T06:03:36;101984.88;;;7.79;53.64
40372;BME280;28564;53.346;-6.554;2023-01-29T06:06:03;101983.10;;;7.83;53.58
40372;BME280;28564;53.346;-6.554;2023-01-29T06:08:31;101984.74;;;7.84;53.34
40372;BME280;28564;53.346;-6.554;2023-01-29T06:10:58;101980.24;;;7.79;53.43
40372;BME280;28564;53.346;-6.554;2023-01-29T06:13:26;101984.46;;;7.73;53.87
40372;BME280;28564;53.346;-6.554;2023-01-29T06:15:53;101986.98;;;8.06;53.60
40372;BME280;28564;53.346;-6.554;2023-01-29T06:18:20;101986.72;;;7.77;53.73
40372;BME280;28564;53.346;-6.554;2023-01-29T06:20:48;101982.12;;;7.78;53.89
40372;BME280;28564;53.346;-6.554;2023-01-29T06:23:15;101982.66;;;7.79;53.90
40372;BME280;28564;53.346;-6.554;2023-01-29T06:25:42;101979.21;;;7.83;53.90
40372;BME280;28564;53.346;-6.554;2023-01-29T06:28:09;101978.73;;;7.64;53.86
40372;BME280;28564;53.346;-6.554;2023-01-29T06:30:37;101977.15;;;7.85;53.98
40372;BME280;28564;53.346;-6.554;2023-01-29T06:33:04;101974.19;;;7.89;53.96
40372;BME280;28564;53.346;-6.554;2023-01-29T06:35:31;101972.19;;;7.93;53.92
40372;BME280;28564;53.346;-6.554;2023-01-29T06:37:59;101976.07;;;7.74;53.73
40372;BME280;28564;53.346;-6.554;2023-01-29T06:40:26;101980.35;;;7.95;54.01
40372;BME280;28564;53.346;-6.554;2023-01-29T06:42:54;101976.79;;;7.77;53.85
40372;BME280;28564;53.346;-6.554;2023-01-29T06:45:21;101975.71;;;7.95;54.07
40372;BME280;28564;53.346;-6.554;2023-01-29T06:47:49;101970.90;;;7.76;54.05
40372;BME280;28564;53.346;-6.554;2023-01-29T06:50:16;101971.83;;;8.03;53.87
40372;BME280;28564;53.346;-6.554;2023-01-29T06:52:43;101974.96;;;8.01;54.04
40372;BME280;28564;53.346;-6.554;2023-01-29T06:55:11;101973.81;;;7.98;54.18
40372;BME280;28564;53.346;-6.554;2023-01-29T06:57:38;101976.52;;;7.94;54.45
40372;BME280;28564;53.346;-6.554;2023-01-29T07:00:07;101971.86;;;7.97;54.25
40372;BME280;28564;53.346;-6.554;2023-01-29T07:02:34;101971.29;;;7.96;54.46
40372;BME280;28564;53.346;-6.554;2023-01-29T07:05:01;101962.93;;;7.98;54.51
40372;BME280;28564;53.346;-6.554;2023-01-29T07:07:29;101956.25;;;8.00;54.54
40372;BME280;28564;53.346;-6.554;2023-01-29T07:09:56;101953.61;;;8.05;54.40
40372;BME280;28564;53.346;-6.554;2023-01-29T07:12:24;101949.61;;;8.09;54.37
40372;BME280;28564;53.346;-6.554;2023-01-29T07:14:51;101946.84;;;8.10;54.40
40372;BME280;28564;53.346;-6.554;2023-01-29T07:17:18;101942.70;;;8.08;54.43
40372;BME280;28564;53.346;-6.554;2023-01-29T07:19:46;101940.97;;;7.88;54.46
40372;BME280;28564;53.346;-6.554;2023-01-29T07:22:13;101939.68;;;8.09;54.63
40372;BME280;28564;53.346;-6.554;2023-01-29T07:24:41;101937.74;;;8.13;54.67
40372;BME280;28564;53.346;-6.554;2023-01-29T07:27:08;101936.08;;;7.90;54.84
40372;BME280;28564;53.346;-6.554;2023-01-29T07:29:36;101942.28;;;8.16;54.83
40372;BME280;28564;53.346;-6.554;2023-01-29T07:32:04;101934.78;;;8.17;54.91
40372;BME280;28564;53.346;-6.554;2023-01-29T07:34:31;101936.41;;;8.25;54.74
40372;BME280;28564;53.346;-6.554;2023-01-29T07:36:59;101935.88;;;8.04;54.71
40372;BME280;28564;53.346;-6.554;2023-01-29T07:39:26;101930.78;;;8.27;54.74
40372;BME280;28564;53.346;-6.554;2023-01-29T07:41:53;101929.01;;;8.28;54.64
40372;BME280;28564;53.346;-6.554;2023-01-29T07:44:20;101925.35;;;8.03;54.74
40372;BME280;28564;53.346;-6.554;2023-01-29T07:46:48;101927.43;;;8.25;54.80
40372;BME280;28564;53.346;-6.554;2023-01-29T07:49:15;101920.17;;;8.03;54.86
40372;BME280;28564;53.346;-6.554;2023-01-29T07:51:42;101925.93;;;8.22;55.12
40372;BME280;28564;53.346;-6.554;2023-01-29T07:54:10;101913.16;;;8.05;55.09
40372;BME280;28564;53.346;-6.554;2023-01-29T07:56:37;101907.87;;;8.08;55.10
40372;BME280;28564;53.346;-6.554;2023-01-29T07:59:04;101913.73;;;8.14;54.93
40372;BME280;28564;53.346;-6.554;2023-01-29T08:01:31;101910.45;;;8.18;54.73
40372;BME280;28564;53.346;-6.554;2023-01-29T08:03:59;101924.23;;;8.16;54.82
40372;BME280;28564;53.346;-6.554;2023-01-29T08:06:26;101919.99;;;8.12;54.98
40372;BME280;28564;53.346;-6.554;2023-01-29T08:08:53;101921.26;;;8.08;55.29
40372;BME280;28564;53.346;-6.554;2023-01-29T08:11:21;101920.40;;;8.31;55.32
40372;BME280;28564;53.346;-6.554;2023-01-29T08:13:48;101917.45;;;7.89;55.33
40372;BME280;28564;53.346;-6.554;2023-01-29T08:16:15;101921.23;;;7.89;55.40
40372;BME280;28564;53.346;-6.554;2023-01-29T08:18:42;101918.43;;;8.38;55.42
40372;BME280;28564;53.346;-6.554;2023-01-29T08:21:10;101919.34;;;8.46;55.32
40372;BME280;28564;53.346;-6.554;2023-01-29T08:23:37;101926.22;;;8.27;55.26
40372;BME280;28564;53.346;-6.554;2023-01-29T08:26:04;101920.79;;;8.25;55.29
40372;BME280;28564;53.346;-6.554;2023-01-29T08:28:32;101921.69;;;8.43;55.54
40372;BME280;28564;53.346;-6.554;2023-01-29T08:30:59;101920.81;;;8.49;55.35
40372;BME280;28564;53.346;-6.554;2023-01-29T08:33:26;101918.09;;;8.46;55.60
40372;BME280;28564;53.346;-6.554;2023-01-29T08:35:54;101919.00;;;8.28;55.85
40372;BME280;28564;53.346;-6.554;2023-01-29T08:38:21;101922.28;;;8.36;55.50
40372;BME280;28564;53.346;-6.554;2023-01-29T08:40:49;101926.55;;;8.39;55.59
40372;BME280;28564;53.346;-6.554;2023-01-29T08:43:16;101928.11;;;8.46;55.42
40372;BME280;28564;53.346;-6.554;2023-01-29T08:45:44;101933.88;;;8.49;55.32
40372;BME280;28564;53.346;-6.554;2023-01-29T08:48:11;101931.05;;;8.34;55.14
40372;BME280;28564;53.346;-6.554;2023-01-29T08:50:38;101927.38;;;8.54;55.36
40372;BME280;28564;53.346;-6.554;2023-01-29T08:53:07;101926.91;;;8.56;55.40
40372;BME280;28564;53.346;-6.554;2023-01-29T08:55:35;101926.74;;;8.45;55.28
40372;BME280;28564;53.346;-6.554;2023-01-29T08:58:03;101923.18;;;8.70;55.03
40372;BME280;28564;53.346;-6.554;2023-01-29T09:00:31;101923.43;;;8.49;55.26
40372;BME280;28564;53.346;-6.554;2023-01-29T09:02:58;101922.28;;;8.79;55.05
40372;BME280;28564;53.346;-6.554;2023-01-29T09:05:26;101926.64;;;8.60;54.87
40372;BME280;28564;53.346;-6.554;2023-01-29T09:07:56;101925.66;;;8.61;54.79
40372;BME280;28564;53.346;-6.554;2023-01-29T09:10:24;101919.52;;;8.77;55.16
40372;BME280;28564;53.346;-6.554;2023-01-29T09:12:51;101919.20;;;8.55;55.24
40372;BME280;28564;53.346;-6.554;2023-01-29T09:15:18;101924.38;;;8.63;55.18
40372;BME280;28564;53.346;-6.554;2023-01-29T09:17:46;101928.55;;;8.70;55.16
40372;BME280;28564;53.346;-6.554;2023-01-29T09:20:13;101932.22;;;8.92;55.16
40372;BME280;28564;53.346;-6.554;2023-01-29T09:22:41;101931.48;;;8.73;55.22
40372;BME280;28564;53.346;-6.554;2023-01-29T09:25:08;101933.71;;;8.73;55.69
40372;BME280;28564;53.346;-6.554;2023-01-29T09:27:35;101936.74;;;8.82;55.40
40372;BME280;28564;53.346;-6.554;2023-01-29T09:30:04;101937.77;;;9.09;55.33
40372;BME280;28564;53.346;-6.554;2023-01-29T09:32:33;101937.57;;;8.88;55.36
40372;BME280;28564;53.346;-6.554;2023-01-29T09:35:06;101936.11;;;8.90;55.17
40372;BME280;28564;53.346;-6.554;2023-01-29T09:37:34;101936.61;;;8.94;55.11
40372;BME280;28564;53.346;-6.554;2023-01-29T09:40:01;101940.39;;;8.99;55.22
40372;BME280;28564;53.346;-6.554;2023-01-29T09:42:33;101943.14;;;8.98;55.21
40372;BME280;28564;53.346;-6.554;2023-01-29T09:45:07;101937.62;;;9.00;55.14
40372;BME280;28564;53.346;-6.554;2023-01-29T09:47:38;101939.01;;;9.02;55.16
40372;BME280;28564;53.346;-6.554;2023-01-29T09:50:11;101934.10;;;9.08;55.08
40372;BME280;28564;53.346;-6.554;2023-01-29T09:52:44;101936.18;;;9.11;55.03
40372;BME280;28564;53.346;-6.554;2023-01-29T09:55:23;101931.81;;;9.17;54.76
40372;BME280;28564;53.346;-6.554;2023-01-29T09:57:53;101931.35;;;8.97;54.63
40372;BME280;28564;53.346;-6.554;2023-01-29T10:04:06;101922.68;;;9.25;53.75
40372;BME280;28564;53.346;-6.554;2023-01-29T10:06:55;101926.38;;;9.23;54.02
40372;BME280;28564;53.346;-6.554;2023-01-29T10:09:40;101920.40;;;9.38;54.09
40372;BME280;28564;53.346;-6.554;2023-01-29T10:12:33;101915.19;;;9.65;54.27
40372;BME280;28564;53.346;-6.554;2023-01-29T10:15:17;101910.65;;;9.37;54.68
40372;BME280;28564;53.346;-6.554;2023-01-29T10:17:55;101909.25;;;9.73;54.58
40372;BME280;28564;53.346;-6.554;2023-01-29T10:20:45;101906.95;;;9.22;54.65
40372;BME280;28564;53.346;-6.554;2023-01-29T10:23:21;101910.43;;;9.27;54.61
40372;BME280;28564;53.346;-6.554;2023-01-29T10:25:50;101906.82;;;9.25;54.96
40372;BME280;28564;53.346;-6.554;2023-01-29T10:28:20;101903.94;;;9.48;54.96
40372;BME280;28564;53.346;-6.554;2023-01-29T10:30:50;101898.35;;;9.27;54.87
40372;BME280;28564;53.346;-6.554;2023-01-29T10:33:25;101897.76;;;9.51;55.19
40372;BME280;28564;53.346;-6.554;2023-01-29T10:35:55;101896.37;;;9.35;55.09
40372;BME280;28564;53.346;-6.554;2023-01-29T10:38:34;101895.30;;;9.44;55.02
40372;BME280;28564;53.346;-6.554;2023-01-29T10:41:16;101896.74;;;9.43;55.23
40372;BME280;28564;53.346;-6.554;2023-01-29T10:43:53;101897.10;;;9.46;55.38
40372;BME280;28564;53.346;-6.554;2023-01-29T10:46:34;101892.55;;;9.54;55.11
40372;BME280;28564;53.346;-6.554;2023-01-29T10:49:15;101892.27;;;9.74;55.04
40372;BME280;28564;53.346;-6.554;2023-01-29T10:51:58;101888.98;;;9.50;55.26
40372;BME280;28564;53.346;-6.554;2023-01-29T10:54:42;101884.83;;;9.49;55.28
40372;BME280;28564;53.346;-6.554;2023-01-29T10:57:20;101879.13;;;9.47;55.56
40372;BME280;28564;53.346;-6.554;2023-01-29T10:59:59;101877.73;;;9.97;55.78
40372;BME280;28564;53.346;-6.554;2023-01-29T11:02:28;101877.61;;;9.60;55.42
40372;BME280;28564;53.346;-6.554;2023-01-29T11:04:56;101879.42;;;9.86;55.53
40372;BME280;28564;53.346;-6.554;2023-01-29T11:07:24;101877.73;;;9.65;55.30
40372;BME280;28564;53.346;-6.554;2023-01-29T11:09:56;101876.02;;;9.69;55.31
40372;BME280;28564;53.346;-6.554;2023-01-29T11:12:32;101870.91;;;9.43;55.38
40372;BME280;28564;53.346;-6.554;2023-01-29T11:15:05;101864.08;;;9.75;55.53
40372;BME280;28564;53.346;-6.554;2023-01-29T11:17:33;101856.84;;;9.88;55.07
40372;BME280;28564;53.346;-6.554;2023-01-29T11:20:01;101849.96;;;9.63;54.88
40372;BME280;28564;53.346;-6.554;2023-01-29T11:22:29;101843.64;;;9.95;54.90
40372;BME280;28564;53.346;-6.554;2023-01-29T11:25:16;101841.69;;;10.00;54.80
40372;BME280;28564;53.346;-6.554;2023-01-29T11:27:47;101839.33;;;10.05;54.65
40372;BME280;28564;53.346;-6.554;2023-01-29T11:30:19;101839.17;;;10.08;54.55
40372;BME280;28564;53.346;-6.554;2023-01-29T11:32:52;101833.25;;;9.86;54.44
40372;BME280;28564;53.346;-6.554;2023-01-29T11:35:24;101823.52;;;10.16;54.41
40372;BME280;28564;53.346;-6.554;2023-01-29T11:37:52;101816.63;;;10.17;54.60
40372;BME280;28564;53.346;-6.554;2023-01-29T11:40:37;101809.56;;;10.25;54.48
40372;BME280;28564;53.346;-6.554;2023-01-29T11:43:18;101815.24;;;10.31;54.47
40372;BME280;28564;53.346;-6.554;2023-01-29T11:45:48;101806.24;;;10.17;54.48
40372;BME280;28564;53.346;-6.554;2023-01-29T11:48:18;101794.85;;;10.44;54.22
40372;BME280;28564;53.346;-6.554;2023-01-29T11:50:51;101782.97;;;10.59;53.87
40372;BME280;28564;53.346;-6.554;2023-01-29T11:53:25;101778.38;;;10.46;53.59
40372;BME280;28564;53.346;-6.554;2023-01-29T11:55:57;101770.43;;;10.44;53.96
40372;BME280;28564;53.346;-6.554;2023-01-29T11:58:27;101770.07;;;10.74;53.62
40372;BME280;28564;53.346;-6.554;2023-01-29T12:00:56;101758.64;;;10.53;53.73
40372;BME280;28564;53.346;-6.554;2023-01-29T12:03:32;101757.79;;;10.86;53.69
40372;BME280;28564;53.346;-6.554;2023-01-29T12:06:04;101757.97;;;10.64;53.76
40372;BME280;28564;53.346;-6.554;2023-01-29T12:08:37;101755.36;;;10.65;53.66
40372;BME280;28564;53.346;-6.554;2023-01-29T12:11:11;101738.99;;;10.65;54.11
40372;BME280;28564;53.346;-6.554;2023-01-29T12:13:38;101738.25;;;10.99;53.89
40372;BME280;28564;53.346;-6.554;2023-01-29T12:16:25;101731.03;;;11.00;53.89
40372;BME280;28564;53.346;-6.554;2023-01-29T12:18:57;101719.84;;;11.10;54.03
40372;BME280;28564;53.346;-6.554;2023-01-29T12:21:33;101717.52;;;10.96;54.14
40372;BME280;28564;53.346;-6.554;2023-01-29T12:24:10;101706.06;;;11.24;54.17
40372;BME280;28564;53.346;-6.554;2023-01-29T12:26:45;101702.72;;;11.13;54.34
40372;BME280;28564;53.346;-6.554;2023-01-29T12:29:24;101692.96;;;11.28;53.89
40372;BME280;28564;53.346;-6.554;2023-01-29T12:32:05;101687.95;;;11.44;53.77
40372;BME280;28564;53.346;-6.554;2023-01-29T12:34:41;101693.68;;;11.53;53.59
40372;BME280;28564;53.346;-6.554;2023-01-29T12:37:19;101686.42;;;11.58;53.59
40372;BME280;28564;53.346;-6.554;2023-01-29T12:39:48;101682.70;;;11.68;53.55
40372;BME280;28564;53.346;-6.554;2023-01-29T12:42:18;101684.06;;;11.80;53.43
40372;BME280;28564;53.346;-6.554;2023-01-29T12:44:49;101686.54;;;11.96;53.44
40372;BME280;28564;53.346;-6.554;2023-01-29T12:47:22;101674.73;;;12.14;53.35
40372;BME280;28564;53.346;-6.554;2023-01-29T12:49:54;101670.31;;;11.83;53.31
40372;BME280;28564;53.346;-6.554;2023-01-29T12:52:33;101674.17;;;11.91;53.54
40372;BME280;28564;53.346;-6.554;2023-01-29T12:55:07;101676.06;;;11.97;53.45
40372;BME280;28564;53.346;-6.554;2023-01-29T12:57:41;101668.08;;;11.99;53.37
40372;BME280;28564;53.346;-6.554;2023-01-29T13:00:14;101656.75;;;11.99;53.61
40372;BME280;28564;53.346;-6.554;2023-01-29T13:02:48;101653.28;;;12.12;53.60
40372;BME280;28564;53.346;-6.554;2023-01-29T13:05:23;101641.12;;;12.20;53.58
40372;BME280;28564;53.346;-6.554;2023-01-29T13:07:57;101641.24;;;12.33;53.48
40372;BME280;28564;53.346;-6.554;2023-01-29T13:10:29;101631.05;;;12.42;53.35